sensor_id;sensor_type;location;lat;lon;timestamp;pressure;altitude;pressure_sealevel;temperature;humidity
70468;BME280;57934;51.532;7.684;2023-07-31T00:00:34;99823.84;;;15.32;nan
70468;BME280;57934;51.532;7.684;2023-07-31T00:03:00;99817.13;;;15.41;nan
70468;BME280;57934;51.532;7.684;2023-07-31T00:05:26;99821.88;;;15.39;nan
70468;BME280;57934;51.532;7.684;2023-07-31T00:07:52;99816.88;;;15.43;nan
70468;BME280;57934;51.532;7.684;2023-07-31T00:10:19;99811.34;;;15.44;nan
70468;BME280;57934;51.532;7.684;2023-07-31T00:12:45;99812.50;;;15.48;nan
70468;BME280;57934;51.532;7.684;2023-07-31T00:15:13;99815.47;;;15.52;nan
70468;BME280;57934;51.532;7.684;2023-07-31T00:17:39;99818.81;;;15.47;nan
70468;BME280;57934;51.532;7.684;2023-07-31T00:20:05;99806.59;;;15.46;nan
70468;BME280;57934;51.532;7.684;2023-07-31T00:22:31;99818.47;;;15.56;nan
70468;BME280;57934;51.532;7.684;2023-07-31T00:24:57;99822.16;;;15.55;nan
70468;BME280;57934;51.532;7.684;2023-07-31T00:27:24;99817.81;;;15.48;nan
70468;BME280;57934;51.532;7.684;2023-07-31T00:29:50;99815.09;;;15.60;nan
70468;BME280;57934;51.532;7.684;2023-07-31T00:32:16;99815.91;;;15.61;nan
70468;BME280;57934;51.532;7.684;2023-07-31T00:34:42;99814.28;;;15.60;nan
70468;BME280;57934;51.532;7.684;2023-07-31T00:37:08;99818.34;;;15.50;nan
70468;BME280;57934;51.532;7.684;2023-07-31T00:39:34;99816.03;;;15.54;nan
70468;BME280;57934;51.532;7.684;2023-07-31T00:42:01;99807.41;;;15.47;nan
70468;BME280;57934;51.532;7.684;2023-07-31T00:44:27;99808.91;;;15.43;nan
70468;BME280;57934;51.532;7.684;2023-07-31T00:46:53;99795.34;;;15.56;nan
70468;BME280;57934;51.532;7.684;2023-07-31T00:49:21;99801.00;;;15.60;nan
70468;BME280;57934;51.532;7.684;2023-07-31T00:51:48;99796.28;;;15.50;nan
70468;BME280;57934;51.532;7.684;2023-07-31T00:54:14;99799.53;;;15.52;nan
70468;BME280;57934;51.532;7.684;2023-07-31T00:56:41;99791.50;;;15.64;nan
70468;BME280;57934;51.532;7.684;2023-07-31T00:59:10;99799.88;;;15.56;nan
70468;BME280;57934;51.532;7.684;2023-07-31T01:01:36;99788.31;;;15.50;nan
70468;BME280;57934;51.532;7.684;2023-07-31T01:04:03;99782.53;;;15.53;nan
70468;BME280;57934;51.532;7.684;2023-07-31T01:06:44;99794.78;;;15.54;nan
70468;BME280;57934;51.532;7.684;2023-07-31T01:09:43;99791.91;;;15.56;nan
70468;BME280;57934;51.532;7.684;2023-07-31T01:12:15;99777.47;;;15.51;nan
70468;BME280;57934;51.532;7.684;2023-07-31T01:17:26;99788.31;;;15.50;nan
70468;BME280;57934;51.532;7.684;2023-07-31T01:19:54;99790.91;;;15.45;nan
70468;BME280;57934;51.532;7.684;2023-07-31T01:28:19;99802.88;;;15.47;nan
70468;BME280;57934;51.532;7.684;2023-07-31T01:30:48;99789.13;;;15.50;nan
70468;BME280;57934;51.532;7.684;2023-07-31T01:33:15;99795.16;;;15.46;nan
70468;BME280;57934;51.532;7.684;2023-07-31T01:35:44;99786.84;;;15.42;nan
70468;BME280;57934;51.532;7.684;2023-07-31T01:38:10;99791.91;;;15.44;nan
70468;BME280;57934;51.532;7.684;2023-07-31T01:40:36;99785.59;;;15.45;nan
70468;BME280;57934;51.532;7.684;2023-07-31T01:43:02;99790.97;;;15.50;nan
70468;BME280;57934;51.532;7.684;2023-07-31T01:45:29;99794.09;;;15.47;nan
70468;BME280;57934;51.532;7.684;2023-07-31T01:47:55;99795.75;;;15.48;nan
70468;BME280;57934;51.532;7.684;2023-07-31T01:50:20;99797.50;;;15.42;nan
70468;BME280;57934;51.532;7.684;2023-07-31T01:52:46;99801.75;;;15.43;nan
70468;BME280;57934;51.532;7.684;2023-07-31T01:55:12;99789.84;;;15.46;nan
70468;BME280;57934;51.532;7.684;2023-07-31T01:57:38;99789.06;;;15.34;nan
70468;BME280;57934;51.532;7.684;2023-07-31T02:00:05;99792.56;;;15.34;nan
70468;BME280;57934;51.532;7.684;2023-07-31T02:02:37;99784.13;;;15.25;nan
70468;BME280;57934;51.532;7.684;2023-07-31T02:05:04;99787.13;;;15.29;nan
70468;BME280;57934;51.532;7.684;2023-07-31T02:07:30;99775.63;;;15.23;nan
70468;BME280;57934;51.532;7.684;2023-07-31T02:09:56;99775.09;;;15.38;nan
70468;BME280;57934;51.532;7.684;2023-07-31T02:12:22;99777.88;;;15.32;nan
70468;BME280;57934;51.532;7.684;2023-07-31T02:14:48;99777.31;;;15.30;nan
70468;BME280;57934;51.532;7.684;2023-07-31T02:17:14;99775.91;;;15.39;nan
70468;BME280;57934;51.532;7.684;2023-07-31T02:19:40;99772.00;;;15.30;nan
70468;BME280;57934;51.532;7.684;2023-07-31T02:22:06;99789.78;;;15.29;nan
70468;BME280;57934;51.532;7.684;2023-07-31T02:24:32;99781.34;;;15.32;nan
70468;BME280;57934;51.532;7.684;2023-07-31T02:26:58;99782.06;;;15.27;nan
70468;BME280;57934;51.532;7.684;2023-07-31T02:29:23;99775.78;;;15.34;nan
70468;BME280;57934;51.532;7.684;2023-07-31T02:31:49;99779.09;;;15.41;nan
70468;BME280;57934;51.532;7.684;2023-07-31T02:34:15;99781.44;;;15.37;nan
70468;BME280;57934;51.532;7.684;2023-07-31T02:36:42;99778.88;;;15.42;nan
70468;BME280;57934;51.532;7.684;2023-07-31T02:39:08;99778.41;;;15.45;nan
70468;BME280;57934;51.532;7.684;2023-07-31T02:41:34;99769.38;;;15.46;nan
70468;BME280;57934;51.532;7.684;2023-07-31T02:44:00;99775.75;;;15.45;nan
70468;BME280;57934;51.532;7.684;2023-07-31T02:46:26;99775.44;;;15.42;nan
70468;BME280;57934;51.532;7.684;2023-07-31T02:48:52;99777.03;;;15.43;nan
70468;BME280;57934;51.532;7.684;2023-07-31T02:51:18;99769.66;;;15.45;nan
70468;BME280;57934;51.532;7.684;2023-07-31T02:53:46;99769.00;;;15.55;nan
70468;BME280;57934;51.532;7.684;2023-07-31T02:56:12;99767.66;;;15.52;nan
70468;BME280;57934;51.532;7.684;2023-07-31T02:58:38;99774.81;;;15.51;nan
70468;BME280;57934;51.532;7.684;2023-07-31T03:01:04;99772.06;;;15.46;nan
70468;BME280;57934;51.532;7.684;2023-07-31T03:03:30;99764.66;;;15.48;nan
70468;BME280;57934;51.532;7.684;2023-07-31T03:05:56;99768.06;;;15.61;nan
70468;BME280;57934;51.532;7.684;2023-07-31T03:08:23;99765.53;;;15.54;nan
70468;BME280;57934;51.532;7.684;2023-07-31T03:10:49;99762.00;;;15.48;nan
70468;BME280;57934;51.532;7.684;2023-07-31T03:13:15;99751.38;;;15.48;nan
70468;BME280;57934;51.532;7.684;2023-07-31T03:15:44;99757.16;;;15.45;nan
70468;BME280;57934;51.532;7.684;2023-07-31T03:18:10;99752.03;;;15.56;nan
70468;BME280;57934;51.532;7.684;2023-07-31T03:20:36;99753.22;;;15.48;nan
70468;BME280;57934;51.532;7.684;2023-07-31T03:23:02;99754.84;;;15.49;nan
70468;BME280;57934;51.532;7.684;2023-07-31T03:25:28;99761.94;;;15.60;nan
70468;BME280;57934;51.532;7.684;2023-07-31T03:27:53;99766.44;;;15.60;nan
70468;BME280;57934;51.532;7.684;2023-07-31T03:30:20;99761.47;;;15.63;nan
70468;BME280;57934;51.532;7.684;2023-07-31T03:32:46;99761.00;;;15.66;nan
70468;BME280;57934;51.532;7.684;2023-07-31T03:35:12;99756.50;;;15.67;nan
70468;BME280;57934;51.532;7.684;2023-07-31T03:37:38;99757.63;;;15.71;nan
70468;BME280;57934;51.532;7.684;2023-07-31T03:40:04;99750.38;;;15.66;nan
70468;BME280;57934;51.532;7.684;2023-07-31T03:42:30;99754.16;;;15.70;nan
70468;BME280;57934;51.532;7.684;2023-07-31T03:44:56;99763.31;;;15.63;nan
70468;BME280;57934;51.532;7.684;2023-07-31T03:47:22;99751.03;;;15.73;nan
70468;BME280;57934;51.532;7.684;2023-07-31T03:49:48;99753.28;;;15.82;nan
70468;BME280;57934;51.532;7.684;2023-07-31T03:52:14;99755.88;;;15.77;nan
70468;BME280;57934;51.532;7.684;2023-07-31T03:54:40;99750.78;;;15.75;nan
70468;BME280;57934;51.532;7.684;2023-07-31T03:57:06;99751.22;;;15.84;nan
70468;BME280;57934;51.532;7.684;2023-07-31T03:59:32;99756.53;;;15.84;nan
70468;BME280;57934;51.532;7.684;2023-07-31T04:01:58;99751.91;;;15.79;nan
70468;BME280;57934;51.532;7.684;2023-07-31T04:04:24;99732.97;;;15.92;nan
70468;BME280;57934;51.532;7.684;2023-07-31T04:06:50;99751.38;;;15.94;nan
70468;BME280;57934;51.532;7.684;2023-07-31T04:09:16;99745.47;;;15.92;nan
70468;BME280;57934;51.532;7.684;2023-07-31T04:11:42;99744.91;;;15.90;nan
70468;BME280;57934;51.532;7.684;2023-07-31T04:14:08;99752.88;;;15.90;nan
70468;BME280;57934;51.532;7.684;2023-07-31T04:16:34;99738.25;;;15.87;nan
70468;BME280;57934;51.532;7.684;2023-07-31T04:19:00;99741.75;;;15.93;nan
70468;BME280;57934;51.532;7.684;2023-07-31T04:21:26;99748.56;;;16.01;nan
70468;BME280;57934;51.532;7.684;2023-07-31T04:23:52;99742.91;;;15.97;nan
70468;BME280;57934;51.532;7.684;2023-07-31T04:26:21;99740.06;;;16.04;nan
70468;BME280;57934;51.532;7.684;2023-07-31T04:28:48;99746.13;;;16.16;nan
70468;BME280;57934;51.532;7.684;2023-07-31T04:31:14;99750.72;;;16.20;nan
70468;BME280;57934;51.532;7.684;2023-07-31T04:33:40;99746.94;;;16.16;nan
70468;BME280;57934;51.532;7.684;2023-07-31T04:36:05;99753.31;;;16.15;nan
70468;BME280;57934;51.532;7.684;2023-07-31T04:38:31;99752.41;;;16.27;nan
70468;BME280;57934;51.532;7.684;2023-07-31T04:40:57;99745.22;;;16.27;nan
70468;BME280;57934;51.532;7.684;2023-07-31T04:43:24;99752.31;;;16.21;nan
70468;BME280;57934;51.532;7.684;2023-07-31T04:45:50;99739.66;;;16.29;nan
70468;BME280;57934;51.532;7.684;2023-07-31T04:48:16;99735.16;;;16.29;nan
70468;BME280;57934;51.532;7.684;2023-07-31T04:50:42;99733.03;;;16.31;nan
70468;BME280;57934;51.532;7.684;2023-07-31T04:53:08;99738.75;;;16.40;nan
70468;BME280;57934;51.532;7.684;2023-07-31T04:55:34;99727.94;;;16.46;nan
70468;BME280;57934;51.532;7.684;2023-07-31T04:58:00;99717.16;;;16.36;nan
70468;BME280;57934;51.532;7.684;2023-07-31T05:00:26;99727.16;;;16.29;nan
70468;BME280;57934;51.532;7.684;2023-07-31T05:02:52;99728.44;;;16.43;nan
70468;BME280;57934;51.532;7.684;2023-07-31T05:05:18;99731.91;;;16.44;nan
70468;BME280;57934;51.532;7.684;2023-07-31T05:07:43;99732.63;;;16.39;nan
70468;BME280;57934;51.532;7.684;2023-07-31T05:10:09;99726.25;;;16.40;nan
70468;BME280;57934;51.532;7.684;2023-07-31T05:12:35;99729.53;;;16.48;nan
70468;BME280;57934;51.532;7.684;2023-07-31T05:15:01;99731.16;;;16.49;nan
70468;BME280;57934;51.532;7.684;2023-07-31T05:17:27;99727.22;;;16.34;nan
70468;BME280;57934;51.532;7.684;2023-07-31T05:19:53;99731.91;;;16.27;nan
70468;BME280;57934;51.532;7.684;2023-07-31T05:22:19;99725.06;;;16.31;nan
70468;BME280;57934;51.532;7.684;2023-07-31T05:24:45;99725.16;;;16.19;nan
70468;BME280;57934;51.532;7.684;2023-07-31T05:27:11;99718.63;;;16.10;nan
70468;BME280;57934;51.532;7.684;2023-07-31T05:29:40;99722.59;;;16.08;nan
70468;BME280;57934;51.532;7.684;2023-07-31T05:32:06;99722.75;;;16.01;nan
70468;BME280;57934;51.532;7.684;2023-07-31T05:34:32;99714.06;;;15.89;nan
70468;BME280;57934;51.532;7.684;2023-07-31T05:36:58;99699.63;;;16.02;nan
70468;BME280;57934;51.532;7.684;2023-07-31T05:39:24;99702.69;;;15.93;nan
70468;BME280;57934;51.532;7.684;2023-07-31T05:41:50;99707.13;;;16.05;nan
70468;BME280;57934;51.532;7.684;2023-07-31T05:44:16;99701.31;;;16.08;nan
70468;BME280;57934;51.532;7.684;2023-07-31T05:46:42;99696.88;;;16.13;nan
70468;BME280;57934;51.532;7.684;2023-07-31T05:49:08;99688.88;;;16.13;nan
70468;BME280;57934;51.532;7.684;2023-07-31T05:51:34;99694.16;;;16.08;nan
70468;BME280;57934;51.532;7.684;2023-07-31T05:54:00;99687.03;;;16.14;nan
70468;BME280;57934;51.532;7.684;2023-07-31T05:56:26;99679.69;;;16.21;nan
70468;BME280;57934;51.532;7.684;2023-07-31T05:58:53;99687.44;;;16.22;nan
70468;BME280;57934;51.532;7.684;2023-07-31T06:01:19;99678.97;;;16.26;nan
70468;BME280;57934;51.532;7.684;2023-07-31T06:03:47;99682.66;;;16.25;nan
70468;BME280;57934;51.532;7.684;2023-07-31T06:06:12;99685.63;;;16.28;nan
70468;BME280;57934;51.532;7.684;2023-07-31T06:08:39;99677.09;;;16.26;nan
70468;BME280;57934;51.532;7.684;2023-07-31T06:11:06;99678.69;;;16.27;nan
70468;BME280;57934;51.532;7.684;2023-07-31T06:13:35;99671.84;;;16.31;nan
70468;BME280;57934;51.532;7.684;2023-07-31T06:16:01;99656.66;;;16.32;nan
70468;BME280;57934;51.532;7.684;2023-07-31T06:18:33;99670.50;;;16.29;nan
70468;BME280;57934;51.532;7.684;2023-07-31T06:20:59;99665.66;;;16.26;nan
70468;BME280;57934;51.532;7.684;2023-07-31T06:23:25;99662.06;;;16.15;nan
70468;BME280;57934;51.532;7.684;2023-07-31T06:25:51;99658.50;;;16.09;nan
70468;BME280;57934;51.532;7.684;2023-07-31T06:28:17;99670.22;;;16.08;nan
70468;BME280;57934;51.532;7.684;2023-07-31T06:30:43;99664.09;;;16.08;nan
70468;BME280;57934;51.532;7.684;2023-07-31T06:33:09;99652.75;;;16.17;nan
70468;BME280;57934;51.532;7.684;2023-07-31T06:35:35;99653.03;;;16.16;nan
70468;BME280;57934;51.532;7.684;2023-07-31T06:38:01;99641.09;;;16.18;nan
70468;BME280;57934;51.532;7.684;2023-07-31T06:40:28;99637.19;;;16.26;nan
70468;BME280;57934;51.532;7.684;2023-07-31T06:42:55;99639.59;;;16.28;nan
70468;BME280;57934;51.532;7.684;2023-07-31T06:45:21;99650.06;;;16.34;nan
70468;BME280;57934;51.532;7.684;2023-07-31T06:47:47;99648.78;;;16.37;nan
70468;BME280;57934;51.532;7.684;2023-07-31T06:50:13;99640.34;;;16.45;nan
70468;BME280;57934;51.532;7.684;2023-07-31T06:52:39;99639.25;;;16.41;nan
70468;BME280;57934;51.532;7.684;2023-07-31T06:55:19;99643.13;;;16.55;nan
70468;BME280;57934;51.532;7.684;2023-07-31T06:57:46;99642.06;;;16.56;nan
70468;BME280;57934;51.532;7.684;2023-07-31T07:00:13;99642.59;;;16.53;nan
70468;BME280;57934;51.532;7.684;2023-07-31T07:02:39;99649.34;;;16.61;nan
70468;BME280;57934;51.532;7.684;2023-07-31T07:05:06;99644.91;;;16.50;nan
70468;BME280;57934;51.532;7.684;2023-07-31T07:07:32;99645.75;;;16.50;nan
70468;BME280;57934;51.532;7.684;2023-07-31T07:09:58;99639.66;;;16.55;nan
70468;BME280;57934;51.532;7.684;2023-07-31T07:12:29;99647.22;;;16.63;nan
70468;BME280;57934;51.532;7.684;2023-07-31T07:14:56;99639.53;;;16.66;nan
70468;BME280;57934;51.532;7.684;2023-07-31T07:17:24;99639.22;;;16.63;nan
70468;BME280;57934;51.532;7.684;2023-07-31T07:19:50;99637.88;;;16.60;nan
70468;BME280;57934;51.532;7.684;2023-07-31T07:22:17;99639.72;;;16.60;nan
70468;BME280;57934;51.532;7.684;2023-07-31T07:24:43;99632.31;;;16.62;nan
70468;BME280;57934;51.532;7.684;2023-07-31T07:27:09;99628.03;;;16.61;nan
70468;BME280;57934;51.532;7.684;2023-07-31T07:29:35;99636.56;;;16.63;nan
70468;BME280;57934;51.532;7.684;2023-07-31T07:32:01;99634.66;;;16.58;nan
70468;BME280;57934;51.532;7.684;2023-07-31T07:34:28;99637.44;;;16.68;nan
70468;BME280;57934;51.532;7.684;2023-07-31T07:36:54;99647.34;;;16.73;nan
70468;BME280;57934;51.532;7.684;2023-07-31T07:39:20;99649.47;;;16.71;nan
70468;BME280;57934;51.532;7.684;2023-07-31T07:41:47;99644.72;;;16.56;nan
70468;BME280;57934;51.532;7.684;2023-07-31T07:44:13;99648.28;;;16.62;nan
70468;BME280;57934;51.532;7.684;2023-07-31T07:46:40;99645.03;;;16.60;nan
70468;BME280;57934;51.532;7.684;2023-07-31T07:49:06;99643.19;;;16.38;nan
70468;BME280;57934;51.532;7.684;2023-07-31T07:51:32;99640.34;;;16.45;nan
70468;BME280;57934;51.532;7.684;2023-07-31T07:53:58;99625.97;;;16.46;nan
70468;BME280;57934;51.532;7.684;2023-07-31T07:56:27;99628.03;;;16.61;nan
70468;BME280;57934;51.532;7.684;2023-07-31T07:58:54;99631.53;;;16.66;nan
70468;BME280;57934;51.532;7.684;2023-07-31T08:01:20;99622.91;;;16.54;nan
70468;BME280;57934;51.532;7.684;2023-07-31T08:03:46;99628.53;;;16.58;nan
70468;BME280;57934;51.532;7.684;2023-07-31T08:06:12;99635.16;;;16.55;nan
70468;BME280;57934;51.532;7.684;2023-07-31T08:08:39;99638.88;;;16.54;nan
70468;BME280;57934;51.532;7.684;2023-07-31T08:11:05;99634.84;;;16.52;nan
70468;BME280;57934;51.532;7.684;2023-07-31T08:13:31;99629.91;;;16.60;nan
70468;BME280;57934;51.532;7.684;2023-07-31T08:15:57;99630.88;;;16.54;nan
70468;BME280;57934;51.532;7.684;2023-07-31T08:18:23;99629.03;;;16.55;nan
70468;BME280;57934;51.532;7.684;2023-07-31T08:20:49;99630.38;;;16.35;nan
70468;BME280;57934;51.532;7.684;2023-07-31T08:23:14;99618.44;;;16.38;nan
70468;BME280;57934;51.532;7.684;2023-07-31T08:25:41;99625.06;;;16.35;nan
70468;BME280;57934;51.532;7.684;2023-07-31T08:28:08;99617.09;;;16.57;nan
70468;BME280;57934;51.532;7.684;2023-07-31T08:30:33;99612.47;;;16.53;nan
70468;BME280;57934;51.532;7.684;2023-07-31T08:32:59;99614.84;;;16.49;nan
70468;BME280;57934;51.532;7.684;2023-07-31T08:35:26;99620.97;;;16.50;nan
70468;BME280;57934;51.532;7.684;2023-07-31T08:37:54;99610.66;;;16.53;nan
70468;BME280;57934;51.532;7.684;2023-07-31T08:40:20;99612.81;;;16.34;nan
70468;BME280;57934;51.532;7.684;2023-07-31T08:42:49;99607.13;;;16.48;nan
70468;BME280;57934;51.532;7.684;2023-07-31T08:45:17;99605.53;;;16.46;nan
70468;BME280;57934;51.532;7.684;2023-07-31T08:47:48;99606.56;;;16.67;nan
70468;BME280;57934;51.532;7.684;2023-07-31T08:50:16;99599.75;;;16.77;nan
70468;BME280;57934;51.532;7.684;2023-07-31T08:52:43;99598.44;;;16.79;nan
70468;BME280;57934;51.532;7.684;2023-07-31T08:55:09;99592.13;;;16.85;nan
70468;BME280;57934;51.532;7.684;2023-07-31T08:57:37;99588.94;;;16.88;nan
70468;BME280;57934;51.532;7.684;2023-07-31T09:00:08;99596.13;;;16.88;nan
70468;BME280;57934;51.532;7.684;2023-07-31T09:05:20;99606.66;;;17.05;nan
70468;BME280;57934;51.532;7.684;2023-07-31T09:07:47;99603.06;;;16.89;nan
70468;BME280;57934;51.532;7.684;2023-07-31T09:10:15;99603.25;;;16.82;nan
70468;BME280;57934;51.532;7.684;2023-07-31T09:12:42;99600.13;;;16.90;nan
70468;BME280;57934;51.532;7.684;2023-07-31T09:15:08;99608.03;;;16.80;nan
70468;BME280;57934;51.532;7.684;2023-07-31T09:17:36;99595.63;;;16.91;nan
70468;BME280;57934;51.532;7.684;2023-07-31T09:20:16;99601.91;;;16.80;nan
70468;BME280;57934;51.532;7.684;2023-07-31T09:22:43;99593.91;;;16.80;nan
70468;BME280;57934;51.532;7.684;2023-07-31T09:25:19;99595.22;;;16.77;nan
70468;BME280;57934;51.532;7.684;2023-07-31T09:28:03;99601.34;;;16.78;nan
70468;BME280;57934;51.532;7.684;2023-07-31T09:30:30;99600.81;;;16.76;nan
70468;BME280;57934;51.532;7.684;2023-07-31T09:33:04;99606.94;;;16.54;nan
70468;BME280;57934;51.532;7.684;2023-07-31T09:35:34;99611.44;;;16.54;nan
70468;BME280;57934;51.532;7.684;2023-07-31T09:38:04;99605.41;;;16.36;nan
70468;BME280;57934;51.532;7.684;2023-07-31T09:40:31;99600.31;;;16.35;nan
70468;BME280;57934;51.532;7.684;2023-07-31T09:42:59;99603.84;;;16.40;nan
70468;BME280;57934;51.532;7.684;2023-07-31T09:45:26;99607.72;;;16.55;nan
70468;BME280;57934;51.532;7.684;2023-07-31T09:47:52;99602.34;;;16.50;nan
70468;BME280;57934;51.532;7.684;2023-07-31T09:50:20;99596.09;;;16.61;nan
70468;BME280;57934;51.532;7.684;2023-07-31T09:52:46;99593.94;;;16.58;nan
70468;BME280;57934;51.532;7.684;2023-07-31T09:55:13;99592.56;;;16.55;nan
70468;BME280;57934;51.532;7.684;2023-07-31T09:57:44;99590.56;;;16.67;nan
70468;BME280;57934;51.532;7.684;2023-07-31T10:00:12;99578.00;;;16.63;nan
70468;BME280;57934;51.532;7.684;2023-07-31T10:02:45;99582.31;;;16.69;nan
70468;BME280;57934;51.532;7.684;2023-07-31T10:05:14;99576.44;;;16.67;nan
70468;BME280;57934;51.532;7.684;2023-07-31T10:07:51;99570.13;;;16.73;nan
70468;BME280;57934;51.532;7.684;2023-07-31T10:10:21;99571.41;;;16.70;nan
70468;BME280;57934;51.532;7.684;2023-07-31T10:12:51;99583.31;;;16.63;nan
70468;BME280;57934;51.532;7.684;2023-07-31T10:15:18;99570.88;;;16.68;nan
70468;BME280;57934;51.532;7.684;2023-07-31T10:17:47;99575.41;;;16.68;nan
70468;BME280;57934;51.532;7.684;2023-07-31T10:20:15;99572.25;;;16.98;nan
70468;BME280;57934;51.532;7.684;2023-07-31T10:22:43;99579.53;;;16.81;nan
70468;BME280;57934;51.532;7.684;2023-07-31T10:25:10;99571.50;;;16.76;nan
70468;BME280;57934;51.532;7.684;2023-07-31T10:27:38;99564.16;;;16.88;nan
70468;BME280;57934;51.532;7.684;2023-07-31T10:30:06;99577.03;;;16.96;nan
70468;BME280;57934;51.532;7.684;2023-07-31T10:32:34;99576.13;;;16.85;nan
70468;BME280;57934;51.532;7.684;2023-07-31T10:35:02;99568.19;;;16.90;nan
70468;BME280;57934;51.532;7.684;2023-07-31T10:40:06;99567.09;;;16.86;nan
70468;BME280;57934;51.532;7.684;2023-07-31T10:42:37;99564.53;;;16.97;nan
70468;BME280;57934;51.532;7.684;2023-07-31T10:45:07;99565.34;;;17.02;nan
70468;BME280;57934;51.532;7.684;2023-07-31T10:47:47;99557.16;;;17.09;nan
70468;BME280;57934;51.532;7.684;2023-07-31T10:50:21;99565.69;;;17.11;nan
70468;BME280;57934;51.532;7.684;2023-07-31T10:52:51;99555.47;;;16.98;nan
70468;BME280;57934;51.532;7.684;2023-07-31T10:55:24;99558.22;;;17.08;nan
70468;BME280;57934;51.532;7.684;2023-07-31T10:57:52;99554.63;;;17.24;nan
70468;BME280;57934;51.532;7.684;2023-07-31T11:03:03;99564.25;;;17.30;nan
70468;BME280;57934;51.532;7.684;2023-07-31T11:08:28;99552.19;;;16.90;nan
70468;BME280;57934;51.532;7.684;2023-07-31T11:13:49;99560.75;;;16.92;nan
70468;BME280;57934;51.532;7.684;2023-07-31T11:16:22;99557.13;;;17.04;nan
70468;BME280;57934;51.532;7.684;2023-07-31T11:18:50;99558.09;;;16.92;nan
70468;BME280;57934;51.532;7.684;2023-07-31T11:21:20;99558.09;;;16.92;nan
70468;BME280;57934;51.532;7.684;2023-07-31T11:23:47;99562.34;;;16.93;nan
70468;BME280;57934;51.532;7.684;2023-07-31T11:26:14;99564.72;;;16.90;nan
70468;BME280;57934;51.532;7.684;2023-07-31T11:28:40;99561.78;;;16.91;nan
70468;BME280;57934;51.532;7.684;2023-07-31T11:31:09;99568.44;;;16.89;nan
70468;BME280;57934;51.532;7.684;2023-07-31T11:33:35;99579.91;;;16.89;nan
70468;BME280;57934;51.532;7.684;2023-07-31T11:36:01;99561.50;;;16.88;nan
70468;BME280;57934;51.532;7.684;2023-07-31T11:38:28;99566.91;;;16.98;nan
70468;BME280;57934;51.532;7.684;2023-07-31T11:41:03;99566.53;;;16.84;nan
70468;BME280;57934;51.532;7.684;2023-07-31T11:43:33;99565.59;;;16.96;nan
70468;BME280;57934;51.532;7.684;2023-07-31T11:46:01;99558.72;;;16.78;nan
70468;BME280;57934;51.532;7.684;2023-07-31T11:48:33;99558.03;;;16.87;nan
70468;BME280;57934;51.532;7.684;2023-07-31T11:51:02;99545.41;;;17.05;nan
70468;BME280;57934;51.532;7.684;2023-07-31T11:56:07;99545.91;;;17.02;nan
70468;BME280;57934;51.532;7.684;2023-07-31T11:58:35;99547.06;;;17.11;nan
70468;BME280;57934;51.532;7.684;2023-07-31T12:01:02;99545.25;;;17.16;nan
70468;BME280;57934;51.532;7.684;2023-07-31T12:03:28;99543.09;;;17.18;nan
70468;BME280;57934;51.532;7.684;2023-07-31T12:05:54;99538.63;;;17.24;nan
70468;BME280;57934;51.532;7.684;2023-07-31T12:08:22;99545.63;;;17.35;nan
70468;BME280;57934;51.532;7.684;2023-07-31T12:10:53;99532.25;;;17.30;nan
70468;BME280;57934;51.532;7.684;2023-07-31T12:13:22;99536.69;;;17.52;nan
70468;BME280;57934;51.532;7.684;2023-07-31T12:15:48;99540.41;;;17.51;nan
70468;BME280;57934;51.532;7.684;2023-07-31T12:18:18;99538.22;;;17.42;nan
70468;BME280;57934;51.532;7.684;2023-07-31T12:20:49;99549.72;;;17.48;nan
70468;BME280;57934;51.532;7.684;2023-07-31T12:25:45;99549.09;;;17.73;nan
70468;BME280;57934;51.532;7.684;2023-07-31T12:28:11;99542.75;;;17.84;nan
70468;BME280;57934;51.532;7.684;2023-07-31T12:30:39;99551.47;;;17.75;nan
70468;BME280;57934;51.532;7.684;2023-07-31T12:33:14;99535.66;;;18.10;nan
70468;BME280;57934;51.532;7.684;2023-07-31T12:35:44;99534.66;;;18.22;nan
70468;BME280;57934;51.532;7.684;2023-07-31T12:38:14;99527.13;;;18.13;nan
70468;BME280;57934;51.532;7.684;2023-07-31T12:40:41;99532.81;;;18.38;nan
70468;BME280;57934;51.532;7.684;2023-07-31T12:43:08;99527.81;;;18.62;nan
70468;BME280;57934;51.532;7.684;2023-07-31T12:45:34;99535.53;;;18.63;nan
70468;BME280;57934;51.532;7.684;2023-07-31T12:48:01;99530.44;;;18.51;nan
70468;BME280;57934;51.532;7.684;2023-07-31T12:50:27;99530.47;;;18.62;nan
70468;BME280;57934;51.532;7.684;2023-07-31T12:52:54;99525.88;;;18.42;nan
70468;BME280;57934;51.532;7.684;2023-07-31T12:55:21;99521.88;;;18.34;nan
70468;BME280;57934;51.532;7.684;2023-07-31T12:57:47;99521.88;;;18.29;nan
70468;BME280;57934;51.532;7.684;2023-07-31T13:00:14;99522.63;;;18.24;nan
70468;BME280;57934;51.532;7.684;2023-07-31T13:02:40;99522.91;;;18.28;nan
70468;BME280;57934;51.532;7.684;2023-07-31T13:05:06;99511.41;;;18.12;nan
70468;BME280;57934;51.532;7.684;2023-07-31T13:07:32;99518.53;;;17.96;nan
70468;BME280;57934;51.532;7.684;2023-07-31T13:09:58;99521.44;;;17.84;nan
70468;BME280;57934;51.532;7.684;2023-07-31T13:12:24;99525.41;;;17.82;nan
70468;BME280;57934;51.532;7.684;2023-07-31T13:14:50;99519.19;;;17.71;nan
70468;BME280;57934;51.532;7.684;2023-07-31T13:17:18;99518.91;;;17.62;nan
70468;BME280;57934;51.532;7.684;2023-07-31T13:19:44;99516.69;;;17.49;nan
70468;BME280;57934;51.532;7.684;2023-07-31T13:22:10;99508.91;;;17.48;nan
70468;BME280;57934;51.532;7.684;2023-07-31T13:24:36;99504.72;;;17.52;nan
70468;BME280;57934;51.532;7.684;2023-07-31T13:27:02;99498.47;;;17.36;nan
70468;BME280;57934;51.532;7.684;2023-07-31T13:29:28;99491.31;;;17.41;nan
70468;BME280;57934;51.532;7.684;2023-07-31T13:31:55;99480.38;;;17.38;nan
70468;BME280;57934;51.532;7.684;2023-07-31T13:34:21;99471.03;;;17.40;nan
70468;BME280;57934;51.532;7.684;2023-07-31T13:36:47;99478.03;;;17.52;nan
70468;BME280;57934;51.532;7.684;2023-07-31T13:39:13;99479.41;;;17.59;nan
70468;BME280;57934;51.532;7.684;2023-07-31T13:41:39;99476.78;;;17.70;nan
70468;BME280;57934;51.532;7.684;2023-07-31T13:44:05;99476.31;;;17.78;nan
70468;BME280;57934;51.532;7.684;2023-07-31T13:46:31;99473.66;;;17.78;nan
70468;BME280;57934;51.532;7.684;2023-07-31T13:48:59;99478.13;;;17.72;nan